createdAt,value
2023-03-13T00:01:28.404Z,9.90
2023-03-13T00:03:56.620Z,10.53
2023-03-13T00:06:27.556Z,9.48
2023-03-13T00:08:56.163Z,8.46
2023-03-13T00:11:24.173Z,8.71
2023-03-13T00:14:00.266Z,10.18
2023-03-13T00:16:28.844Z,10.67
2023-03-13T00:18:58.065Z,9.56
2023-03-13T00:21:29.634Z,8.59
2023-03-13T00:23:59.902Z,9.11
2023-03-13T00:26:29.535Z,10.52
2023-03-13T00:28:57.783Z,11.05
2023-03-13T00:31:29.842Z,9.95
2023-03-13T00:34:01.166Z,8.92
2023-03-13T00:36:32.339Z,8.86
2023-03-13T00:39:01.096Z,10.30
2023-03-13T00:41:31.789Z,11.10
2023-03-13T00:44:00.081Z,10.11
2023-03-13T00:46:30.191Z,9.08
2023-03-13T00:48:58.531Z,9.48
2023-03-13T00:51:27.762Z,10.87
2023-03-13T00:53:57.255Z,11.34
2023-03-13T00:56:25.420Z,10.20
2023-03-13T00:58:54.450Z,9.21
2023-03-13T01:01:24.681Z,9.73
2023-03-13T01:04:03.213Z,11.13
2023-03-13T01:06:34.059Z,11.53
2023-03-13T01:09:03.968Z,10.33
2023-03-13T01:11:35.474Z,9.34
2023-03-13T01:14:10.766Z,9.76
2023-03-13T01:16:39.813Z,11.22
2023-03-13T01:19:13.293Z,11.72
2023-03-13T01:21:43.666Z,10.55
2023-03-13T01:24:12.015Z,9.53
2023-03-13T01:26:40.230Z,9.72
2023-03-13T01:29:08.371Z,11.14
2023-03-13T01:31:36.893Z,11.79
2023-03-13T01:34:06.501Z,10.76
2023-03-13T01:36:37.256Z,9.73
2023-03-13T01:39:06.382Z,9.95
2023-03-13T01:41:34.360Z,11.37
2023-03-13T01:44:02.322Z,12.00
2023-03-13T01:46:30.857Z,10.91
2023-03-13T01:49:10.352Z,9.85
2023-03-13T01:51:51.818Z,10.13
2023-03-13T01:54:37.764Z,11.63
2023-03-13T01:57:27.766Z,12.12
2023-03-13T02:00:14.194Z,10.79
2023-03-13T02:02:47.618Z,10.05
2023-03-13T02:05:17.739Z,11.21
2023-03-13T02:07:49.969Z,12.32
2023-03-13T02:10:18.990Z,11.65
2023-03-13T02:12:47.145Z,10.48
2023-03-13T02:15:20.650Z,10.37
2023-03-13T02:17:50.569Z,11.75
2023-03-13T02:20:23.350Z,12.43
2023-03-13T02:23:09.563Z,11.34
2023-03-13T02:25:55.013Z,10.46
2023-03-13T02:28:35.077Z,11.60
2023-03-13T02:31:03.191Z,12.82
2023-03-13T02:33:37.414Z,12.44
2023-03-13T02:36:06.203Z,11.18
2023-03-13T02:38:51.109Z,10.70
2023-03-13T02:41:19.783Z,12.07
2023-03-13T02:43:47.721Z,12.85
2023-03-13T02:46:21.220Z,11.86
2023-03-13T02:48:52.960Z,10.74
2023-03-13T02:51:40.038Z,10.91
2023-03-13T02:54:17.664Z,12.44
2023-03-13T02:56:50.295Z,12.88
2023-03-13T02:59:18.359Z,11.67
2023-03-13T03:01:46.493Z,10.65
2023-03-13T03:04:14.617Z,10.89
2023-03-13T03:06:42.622Z,12.29
2023-03-13T03:09:10.535Z,12.91
2023-03-13T03:11:38.726Z,11.85
2023-03-13T03:14:07.551Z,10.81
2023-03-13T03:16:35.491Z,11.05
2023-03-13T03:19:04.670Z,12.46
2023-03-13T03:21:34.013Z,13.11
2023-03-13T03:24:02.117Z,12.04
2023-03-13T03:26:34.851Z,11.05
2023-03-13T03:29:02.793Z,11.63
2023-03-13T03:31:31.050Z,12.97
2023-03-13T03:33:58.957Z,13.35
2023-03-13T03:36:27.057Z,12.20
2023-03-13T03:38:55.343Z,11.22
2023-03-13T03:41:23.466Z,11.71
2023-03-13T03:43:51.520Z,13.05
2023-03-13T03:46:19.565Z,13.51
2023-03-13T03:48:47.848Z,12.39
2023-03-13T03:51:16.887Z,11.47
2023-03-13T03:53:45.281Z,12.20
2023-03-13T03:56:13.387Z,13.46
2023-03-13T03:58:41.391Z,13.32
2023-03-13T04:01:09.498Z,12.12
2023-03-13T04:03:37.537Z,11.58
2023-03-13T04:06:07.106Z,12.69
2023-03-13T04:08:34.952Z,13.66
2023-03-13T04:11:03.026Z,12.85
2023-03-13T04:13:31.016Z,11.77
2023-03-13T04:15:59.115Z,11.87
2023-03-13T04:18:27.029Z,13.15
2023-03-13T04:21:06.152Z,13.78
2023-03-13T04:23:34.121Z,12.65
2023-03-13T04:26:02.101Z,11.63
2023-03-13T04:28:29.997Z,11.86
2023-03-13T04:30:58.419Z,13.25
2023-03-13T04:33:26.528Z,13.81
2023-03-13T04:35:54.699Z,12.72
2023-03-13T04:38:23.357Z,11.69
2023-03-13T04:40:51.485Z,11.61
2023-03-13T04:43:19.507Z,12.98
2023-03-13T04:45:47.662Z,13.70
2023-03-13T04:48:15.764Z,12.74
2023-03-13T04:50:43.781Z,11.70
2023-03-13T04:53:11.823Z,11.59
2023-03-13T04:55:39.821Z,12.93
2023-03-13T04:58:07.799Z,13.94
2023-03-13T05:00:35.750Z,13.26
2023-03-13T05:03:03.710Z,12.08
2023-03-13T05:05:34.375Z,11.67
2023-03-13T05:08:02.812Z,12.87
2023-03-13T05:10:30.874Z,13.94
2023-03-13T05:12:58.853Z,13.34
2023-03-13T05:15:26.868Z,12.19
2023-03-13T05:17:54.918Z,11.82
2023-03-13T05:20:23.024Z,13.01
2023-03-13T05:22:51.166Z,14.04
2023-03-13T05:25:19.115Z,13.42
2023-03-13T05:27:47.176Z,12.26
2023-03-13T05:30:15.393Z,11.83
2023-03-13T05:32:43.495Z,12.97
2023-03-13T05:35:11.467Z,14.01
2023-03-13T05:37:41.439Z,13.41
2023-03-13T05:40:10.688Z,12.31
2023-03-13T05:42:39.558Z,12.03
2023-03-13T05:45:11.704Z,13.28
2023-03-13T05:47:39.909Z,14.10
2023-03-13T05:50:09.388Z,13.20
2023-03-13T05:52:37.451Z,12.18
2023-03-13T05:55:06.162Z,12.23
2023-03-13T05:57:34.086Z,13.58
2023-03-13T06:00:03.577Z,14.17
2023-03-13T06:02:31.718Z,13.15
2023-03-13T06:04:59.773Z,12.20
2023-03-13T06:07:27.806Z,12.42
2023-03-13T06:09:55.700Z,13.78
2023-03-13T06:12:23.650Z,14.30
2023-03-13T06:14:51.650Z,13.25
2023-03-13T06:17:19.619Z,12.34
2023-03-13T06:19:47.759Z,12.77
2023-03-13T06:22:17.234Z,14.11
2023-03-13T06:24:46.904Z,14.35
2023-03-13T06:27:15.501Z,13.24
2023-03-13T06:29:43.642Z,12.34
2023-03-13T06:32:12.103Z,12.68
2023-03-13T06:34:40.134Z,14.05
2023-03-13T06:37:08.371Z,14.31
2023-03-13T06:39:36.363Z,13.22
2023-03-13T06:42:05.154Z,12.37
2023-03-13T06:44:33.571Z,12.86
2023-03-13T06:47:02.771Z,14.22
2023-03-13T06:49:31.619Z,14.51
2023-03-13T06:51:59.835Z,13.42
2023-03-13T06:54:28.066Z,12.54
2023-03-13T06:56:58.613Z,12.99
2023-03-13T06:59:26.687Z,14.36
2023-03-13T07:01:54.963Z,14.43
2023-03-13T07:04:31.134Z,13.34
2023-03-13T07:06:59.165Z,12.56
2023-03-13T07:09:27.301Z,13.28
2023-03-13T07:11:58.046Z,14.64
2023-03-13T07:14:26.122Z,14.67
2023-03-13T07:16:54.330Z,13.61
2023-03-13T07:19:22.401Z,12.77
2023-03-13T07:21:50.451Z,12.77
2023-03-13T07:24:18.310Z,14.11
2023-03-13T07:27:01.884Z,14.69
2023-03-13T07:29:32.688Z,13.60
2023-03-13T07:32:00.779Z,12.74
2023-03-13T07:34:28.985Z,12.62
2023-03-13T07:36:56.999Z,13.96
2023-03-13T07:39:26.212Z,14.73
2023-03-13T07:41:54.176Z,13.88
2023-03-13T07:44:22.178Z,12.99
2023-03-13T07:46:50.366Z,12.79
2023-03-13T07:49:18.529Z,14.09
2023-03-13T07:51:48.225Z,14.76
2023-03-13T07:54:16.494Z,13.86
2023-03-13T07:56:44.598Z,12.97
2023-03-13T07:59:12.653Z,12.64
2023-03-13T08:01:49.715Z,13.94
2023-03-13T08:04:17.734Z,14.73
2023-03-13T08:06:45.827Z,13.87
2023-03-13T08:09:13.798Z,13.00
2023-03-13T08:11:42.576Z,12.41
2023-03-13T08:14:11.036Z,13.00
2023-03-13T08:16:41.692Z,14.51
2023-03-13T08:19:11.438Z,14.68
2023-03-13T08:21:39.835Z,13.67
2023-03-13T08:24:11.501Z,12.92
2023-03-13T08:26:41.859Z,12.90
2023-03-13T08:29:15.098Z,14.27
2023-03-13T08:31:47.616Z,14.20
2023-03-13T08:34:17.389Z,13.31
2023-03-13T08:36:45.923Z,12.66
2023-03-13T08:39:18.695Z,12.28
2023-03-13T08:41:47.105Z,13.38
2023-03-13T08:44:20.669Z,14.45
2023-03-13T08:46:49.605Z,13.74
2023-03-13T08:49:17.987Z,12.96
2023-03-13T08:51:48.801Z,12.42
2023-03-13T08:54:16.843Z,12.85
2023-03-13T08:56:45.264Z,14.33
2023-03-13T08:59:15.548Z,14.41
2023-03-13T09:01:43.608Z,13.53
2023-03-13T09:04:11.575Z,12.87
2023-03-13T09:06:39.633Z,13.02
2023-03-13T09:09:08.602Z,14.48
2023-03-13T09:11:41.308Z,14.88
2023-03-13T09:14:10.346Z,13.97
2023-03-13T09:16:38.583Z,13.27
2023-03-13T09:19:06.677Z,13.08
2023-03-13T09:21:35.856Z,14.41
2023-03-13T09:24:05.494Z,15.20
2023-03-13T09:26:33.897Z,14.40
2023-03-13T09:29:01.953Z,13.64
2023-03-13T09:31:34.421Z,13.61
2023-03-13T09:34:03.197Z,15.00
2023-03-13T09:36:31.606Z,15.48
2023-03-13T09:39:00.829Z,14.58
2023-03-13T09:41:52.621Z,13.80
2023-03-13T09:44:21.333Z,13.83
2023-03-13T09:47:16.550Z,15.23
2023-03-13T09:49:51.355Z,15.83
2023-03-13T09:52:34.056Z,14.80
2023-03-13T09:55:11.172Z,13.96
2023-03-13T09:58:06.726Z,13.86
2023-03-13T10:00:43.563Z,15.44
2023-03-13T10:03:27.160Z,15.65
2023-03-13T10:06:23.301Z,14.62
2023-03-13T10:08:52.930Z,13.81
2023-03-13T10:11:46.568Z,14.45
2023-03-13T10:14:30.991Z,15.89
2023-03-13T10:17:19.688Z,15.26
2023-03-13T10:19:55.000Z,14.22
2023-03-13T10:22:27.661Z,13.94
2023-03-13T10:25:18.636Z,15.21
2023-03-13T10:27:51.248Z,15.85
2023-03-13T10:30:39.666Z,14.88
2023-03-13T10:33:07.449Z,14.17
2023-03-13T10:35:42.326Z,15.12
2023-03-13T10:38:20.478Z,16.33
2023-03-13T10:41:02.112Z,15.87
2023-03-13T10:43:30.273Z,14.74
2023-03-13T10:45:59.458Z,14.51
2023-03-13T10:48:31.444Z,15.76
2023-03-13T10:51:16.548Z,16.36
2023-03-13T10:53:44.897Z,15.30
2023-03-13T10:56:17.764Z,14.49
2023-03-13T10:58:51.237Z,15.20
2023-03-13T11:01:37.744Z,16.37
2023-03-13T11:04:35.092Z,15.85
2023-03-13T11:07:25.912Z,14.81
2023-03-13T11:10:56.947Z,15.54
2023-03-13T11:13:43.465Z,16.81
2023-03-13T11:16:23.105Z,15.76
2023-03-13T11:19:16.744Z,15.20
2023-03-13T11:22:03.412Z,16.46
2023-03-13T11:24:50.622Z,17.00
2023-03-13T11:27:43.686Z,15.81
2023-03-13T11:30:49.762Z,15.55
2023-03-13T11:33:47.507Z,17.02
2023-03-13T11:36:35.751Z,17.14
2023-03-13T11:39:11.649Z,15.87
2023-03-13T11:42:12.834Z,16.12
2023-03-13T11:45:01.523Z,17.43
2023-03-13T11:48:05.715Z,17.51
2023-03-13T11:50:47.521Z,16.03
2023-03-13T11:53:55.241Z,16.15
2023-03-13T11:56:32.288Z,17.49
2023-03-13T11:59:40.390Z,17.70
2023-03-13T12:02:35.022Z,16.23
2023-03-13T12:05:11.113Z,16.74
2023-03-13T12:08:05.211Z,17.82
2023-03-13T12:10:46.349Z,17.75
2023-03-13T12:13:23.589Z,16.40
2023-03-13T12:15:55.938Z,16.26
2023-03-13T12:18:41.309Z,17.38
2023-03-13T12:21:26.193Z,17.87
2023-03-13T12:24:33.188Z,16.60
2023-03-13T12:27:12.619Z,16.34
2023-03-13T12:29:56.503Z,17.58
2023-03-13T12:32:54.339Z,17.96
2023-03-13T12:35:29.768Z,16.54
2023-03-13T12:38:12.715Z,16.17
2023-03-13T12:40:51.346Z,17.37
2023-03-13T12:43:33.090Z,18.19
2023-03-13T12:46:13.603Z,17.29
2023-03-13T12:49:35.333Z,16.32
2023-03-13T12:52:28.919Z,17.50
2023-03-13T12:55:36.965Z,18.14
2023-03-13T12:58:29.686Z,16.75
2023-03-13T13:01:03.496Z,16.50
2023-03-13T13:03:48.954Z,17.69
2023-03-13T13:06:17.835Z,18.60
2023-03-13T13:08:53.909Z,17.76
2023-03-13T13:11:33.997Z,16.59
2023-03-13T13:14:26.386Z,17.06
2023-03-13T13:17:39.509Z,18.25
2023-03-13T13:20:42.706Z,17.27
2023-03-13T13:23:24.556Z,16.53
2023-03-13T13:25:56.392Z,17.67
2023-03-13T13:28:34.830Z,18.33
2023-03-13T13:31:41.305Z,17.26
2023-03-13T13:34:36.150Z,16.66
2023-03-13T13:37:27.481Z,18.03
2023-03-13T13:40:30.487Z,18.27
2023-03-13T13:43:23.027Z,16.87
2023-03-13T13:46:24.640Z,16.67
2023-03-13T13:49:08.621Z,18.14
2023-03-13T13:51:39.659Z,18.54
2023-03-13T13:54:33.053Z,17.39
2023-03-13T13:57:46.275Z,16.86
2023-03-13T14:00:22.077Z,18.32
2023-03-13T14:02:56.130Z,18.74
2023-03-13T14:05:31.568Z,17.61
2023-03-13T14:08:20.244Z,16.75
2023-03-13T14:11:24.037Z,17.71
2023-03-13T14:14:11.966Z,19.07
2023-03-13T14:16:52.688Z,18.13
2023-03-13T14:19:40.949Z,17.01
2023-03-13T14:22:12.045Z,17.22
2023-03-13T14:24:40.557Z,18.62
2023-03-13T14:27:17.524Z,18.93
2023-03-13T14:30:15.365Z,17.72
2023-03-13T14:32:46.461Z,16.72
2023-03-13T14:35:54.086Z,17.50
2023-03-13T14:38:36.015Z,18.94
2023-03-13T14:41:04.577Z,18.08
2023-03-13T14:43:42.747Z,17.05
2023-03-13T14:46:32.317Z,16.94
2023-03-13T14:49:25.928Z,18.49
2023-03-13T14:52:20.904Z,18.77
2023-03-13T14:55:07.049Z,17.47
2023-03-13T14:57:56.496Z,16.74
2023-03-13T15:00:46.477Z,17.93
2023-03-13T15:03:25.760Z,18.89
2023-03-13T15:06:04.477Z,17.92
2023-03-13T15:09:17.689Z,17.12
2023-03-13T15:11:56.729Z,18.31
2023-03-13T15:14:42.632Z,19.02
2023-03-13T15:17:25.693Z,18.01
2023-03-13T15:20:31.890Z,17.14
2023-03-13T15:24:31.720Z,17.49
2023-03-13T15:27:02.979Z,16.97
2023-03-13T15:29:53.238Z,16.91
2023-03-13T15:32:41.893Z,18.46
2023-03-13T15:35:40.533Z,18.66
2023-03-13T15:38:23.950Z,17.46
2023-03-13T15:41:27.538Z,16.69
2023-03-13T15:44:22.404Z,17.55
2023-03-13T15:46:52.633Z,18.64
2023-03-13T15:49:23.191Z,17.83
2023-03-13T15:51:51.928Z,17.02
2023-03-13T15:54:24.315Z,16.46
2023-03-13T15:56:55.512Z,17.04
2023-03-13T15:59:24.571Z,18.44
2023-03-13T16:01:53.141Z,18.23
2023-03-13T16:04:52.102Z,17.29
2023-03-13T16:07:50.578Z,16.52
2023-03-13T16:10:29.421Z,16.78
2023-03-13T16:23:35.835Z,16.44
2023-03-13T16:26:09.870Z,17.82
2023-03-13T16:28:37.959Z,18.52
2023-03-13T16:31:06.541Z,17.65
2023-03-13T16:33:34.641Z,16.86
2023-03-13T16:36:02.629Z,16.34
2023-03-13T16:38:30.563Z,17.05
2023-03-13T16:40:58.721Z,18.21
2023-03-13T16:43:26.822Z,17.65
2023-03-13T16:45:54.864Z,16.84
2023-03-13T16:48:24.266Z,16.29
2023-03-13T16:50:52.410Z,16.96
2023-03-13T16:53:20.517Z,18.22
2023-03-13T16:55:50.036Z,17.87
2023-03-13T16:58:18.386Z,16.98
2023-03-13T17:01:04.261Z,16.35
2023-03-13T17:03:33.569Z,16.75
2023-03-13T17:06:02.433Z,18.13
2023-03-13T17:08:30.789Z,17.96
2023-03-13T17:11:07.145Z,17.05
2023-03-13T17:13:35.596Z,16.35
2023-03-13T17:16:04.397Z,16.06
2023-03-13T17:18:32.983Z,17.22
2023-03-13T17:21:01.327Z,18.09
2023-03-13T17:23:29.817Z,17.33
2023-03-13T17:25:58.203Z,16.54
2023-03-13T17:28:26.633Z,15.98
2023-03-13T17:30:55.166Z,16.40
2023-03-13T17:33:23.689Z,17.77
2023-03-13T17:39:30.105Z,16.37
2023-03-13T17:42:00.169Z,15.81
2023-03-13T17:44:29.060Z,16.45
2023-03-13T17:46:57.733Z,17.81
2023-03-13T17:49:25.315Z,17.94
2023-03-13T17:51:52.685Z,17.02
2023-03-13T17:54:21.742Z,16.24
2023-03-13T17:57:01.064Z,16.05
2023-03-13T17:59:29.398Z,17.38
2023-03-13T18:01:59.129Z,17.65
2023-03-13T18:04:30.005Z,16.78
2023-03-13T18:06:57.230Z,16.05
2023-03-13T18:09:24.913Z,15.96
2023-03-13T18:11:55.028Z,17.27
2023-03-13T18:14:22.501Z,17.99
2023-03-13T18:16:51.066Z,17.13
2023-03-13T18:19:22.319Z,16.30
2023-03-13T18:21:53.541Z,15.73
2023-03-13T18:24:21.493Z,16.35
2023-03-13T18:26:52.702Z,17.70
2023-03-13T18:29:26.730Z,17.53
2023-03-13T18:31:59.778Z,16.56
2023-03-13T18:34:29.445Z,15.83
2023-03-13T18:37:03.429Z,15.81
2023-03-13T18:39:33.823Z,17.15
2023-03-13T18:42:01.987Z,17.78
2023-03-13T18:45:07.626Z,16.93
2023-03-13T18:47:36.534Z,15.92
2023-03-13T18:50:26.012Z,15.41
2023-03-13T18:52:55.731Z,16.35
2023-03-13T18:55:25.393Z,17.54
2023-03-13T18:57:53.268Z,17.06
2023-03-13T19:00:30.607Z,16.10
2023-03-13T19:02:58.527Z,15.51
2023-03-13T19:05:25.806Z,16.42
2023-03-13T19:07:52.820Z,17.66
2023-03-13T19:10:24.129Z,17.36
2023-03-13T19:12:52.709Z,16.32
2023-03-13T19:15:27.647Z,15.60
2023-03-13T19:18:19.412Z,15.66
2023-03-13T19:20:59.469Z,16.92
2023-03-13T19:23:28.252Z,17.48
2023-03-13T19:25:59.363Z,16.59
2023-03-13T19:28:28.659Z,15.74
2023-03-13T19:31:03.185Z,15.54
2023-03-13T19:33:38.715Z,16.76
2023-03-13T19:36:32.285Z,17.37
2023-03-13T19:39:00.827Z,16.38
2023-03-13T19:41:31.769Z,15.61
2023-03-13T19:44:02.464Z,15.57
2023-03-13T19:46:35.447Z,16.74
2023-03-13T19:49:04.205Z,17.40
2023-03-13T19:51:32.553Z,16.56
2023-03-13T19:54:00.811Z,15.72
2023-03-13T19:56:31.720Z,15.66
2023-03-13T19:59:08.763Z,16.90
2023-03-13T20:01:37.060Z,17.24
2023-03-13T20:04:08.283Z,16.35
2023-03-13T20:06:37.688Z,15.66
2023-03-13T20:09:10.108Z,16.16
2023-03-13T20:11:42.274Z,17.33
2023-03-13T20:14:11.270Z,17.30
2023-03-13T20:16:40.520Z,16.42
2023-03-13T20:19:09.050Z,15.72
2023-03-13T20:21:45.271Z,15.66
2023-03-13T20:24:16.412Z,16.85
2023-03-13T20:26:44.937Z,17.61
2023-03-13T20:29:14.663Z,16.87
2023-03-13T20:31:43.130Z,16.06
2023-03-13T20:34:15.191Z,15.73
2023-03-13T20:36:43.376Z,16.91
2023-03-13T20:39:12.283Z,17.73
2023-03-13T20:41:41.111Z,16.95
2023-03-13T20:44:10.054Z,16.17
2023-03-13T20:46:38.267Z,15.61
2023-03-13T20:49:06.322Z,16.06
2023-03-13T20:51:37.407Z,17.35
2023-03-13T20:54:06.167Z,17.02
2023-03-13T20:56:34.271Z,16.22
2023-03-13T20:59:05.064Z,15.64
2023-03-13T21:01:33.393Z,15.68
2023-03-13T21:04:01.533Z,16.88
2023-03-13T21:06:30.416Z,17.54
2023-03-13T21:08:58.494Z,16.80
2023-03-13T21:11:26.662Z,16.07
2023-03-13T21:13:54.678Z,15.55
2023-03-13T21:16:24.532Z,15.65
2023-03-13T21:18:52.760Z,16.90
2023-03-13T21:21:22.796Z,17.67
2023-03-13T21:23:54.260Z,16.92
2023-03-13T21:26:22.763Z,16.14
2023-03-13T21:28:53.039Z,15.62
2023-03-13T21:31:21.359Z,15.73
2023-03-13T21:33:49.688Z,17.09
2023-03-13T21:36:21.136Z,17.35
2023-03-13T21:38:50.404Z,16.54
2023-03-13T21:41:22.108Z,15.90
2023-03-13T21:43:50.537Z,15.48
2023-03-13T21:46:19.961Z,16.28
2023-03-13T21:48:48.031Z,17.68
2023-03-13T21:51:18.648Z,17.56
2023-03-13T21:53:47.294Z,16.65
2023-03-13T21:56:16.847Z,15.99
2023-03-13T21:58:45.673Z,15.54
2023-03-13T22:01:15.325Z,15.67
2023-03-13T22:03:43.723Z,17.13
2023-03-13T22:06:14.849Z,17.80
2023-03-13T22:08:43.311Z,16.99
2023-03-13T22:11:14.691Z,16.23
2023-03-13T22:13:43.012Z,15.72
2023-03-13T22:16:11.624Z,15.40
2023-03-13T22:18:43.334Z,16.27
2023-03-13T22:21:11.724Z,17.35
2023-03-13T22:23:39.853Z,16.78
2023-03-13T22:26:07.993Z,16.07
2023-03-13T22:28:35.935Z,15.58
2023-03-13T22:31:06.568Z,15.88
2023-03-13T22:33:35.309Z,17.31
2023-03-13T22:36:04.185Z,17.65
2023-03-13T22:38:36.221Z,16.80
2023-03-13T22:41:07.622Z,16.09
2023-03-13T22:43:36.033Z,15.59
2023-03-13T22:46:04.819Z,15.43
2023-03-13T22:48:33.825Z,16.66
2023-03-13T22:51:11.384Z,17.54
2023-03-13T22:53:41.604Z,16.82
2023-03-13T22:56:11.248Z,16.09
2023-03-13T22:58:41.106Z,15.58
2023-03-13T23:01:15.950Z,15.21
2023-03-13T23:03:45.718Z,15.39
2023-03-13T23:06:25.701Z,16.83
2023-03-13T23:08:53.854Z,17.25
2023-03-13T23:11:22.134Z,16.45
2023-03-13T23:13:50.173Z,15.79
2023-03-13T23:16:18.309Z,15.34
2023-03-13T23:18:46.300Z,15.38
2023-03-13T23:21:15.647Z,16.72
2023-03-13T23:23:44.487Z,17.40
2023-03-13T23:26:15.014Z,16.64
2023-03-13T23:28:43.506Z,15.92
2023-03-13T23:31:18.180Z,15.44
2023-03-13T23:33:47.317Z,16.06
2023-03-13T23:36:18.492Z,17.39
2023-03-13T23:38:51.485Z,17.21
2023-03-13T23:41:21.108Z,16.35
2023-03-13T23:43:49.515Z,15.72
2023-03-13T23:46:20.740Z,15.70
2023-03-13T23:48:49.040Z,17.03
2023-03-13T23:51:17.073Z,17.59
2023-03-13T23:53:45.099Z,16.76
2023-03-13T23:56:13.969Z,16.03
2023-03-13T23:58:42.087Z,15.55
